createdAt,value
2022-11-29T00:01:30.312Z,69.70
2022-11-29T00:03:57.790Z,70.18
2022-11-29T00:06:30.316Z,67.15
2022-11-29T00:08:59.435Z,66.85
2022-11-29T00:11:28.980Z,66.82
2022-11-29T00:13:55.732Z,65.45
2022-11-29T00:16:22.588Z,67.82
2022-11-29T00:18:49.450Z,69.63
2022-11-29T00:21:16.264Z,62.15
2022-11-29T00:23:42.985Z,65.57
2022-11-29T00:26:09.791Z,65.20
2022-11-29T00:28:37.029Z,60.72
2022-11-29T00:31:25.517Z,63.65
2022-11-29T00:33:52.995Z,68.68
2022-11-29T00:36:20.600Z,65.63
2022-11-29T00:38:47.358Z,67.10
2022-11-29T00:41:14.198Z,67.72
2022-11-29T00:43:41.441Z,67.80
2022-11-29T00:46:09.171Z,70.05
2022-11-29T00:48:36.729Z,69.78
2022-11-29T00:51:05.274Z,66.88
2022-11-29T00:53:33.400Z,71.80
2022-11-29T00:56:00.214Z,63.75
2022-11-29T00:58:26.922Z,66.32
2022-11-29T01:00:54.289Z,64.50
2022-11-29T01:03:21.373Z,67.68
2022-11-29T01:05:49.114Z,69.05
2022-11-29T01:08:16.475Z,64.30
2022-11-29T01:10:43.408Z,65.15
2022-11-29T01:13:10.977Z,67.05
2022-11-29T01:15:37.824Z,65.07
2022-11-29T01:18:05.167Z,67.80
2022-11-29T01:20:31.991Z,69.82
2022-11-29T01:22:58.849Z,62.15
2022-11-29T01:25:25.606Z,66.35
2022-11-29T01:27:52.402Z,71.80
2022-11-29T01:30:19.319Z,68.20
2022-11-29T01:32:46.015Z,70.22
2022-11-29T01:35:12.796Z,69.07
2022-11-29T01:37:39.660Z,66.68
2022-11-29T01:40:07.059Z,64.95
2022-11-29T01:42:33.778Z,68.88
2022-11-29T01:45:12.687Z,68.15
2022-11-29T01:47:45.063Z,69.57
2022-11-29T01:50:11.987Z,67.50
2022-11-29T01:52:39.238Z,64.43
2022-11-29T01:55:08.925Z,69.63
2022-11-29T01:57:38.711Z,64.70
2022-11-29T02:00:13.726Z,66.72
2022-11-29T02:02:48.752Z,68.53
2022-11-29T02:05:18.244Z,65.90
2022-11-29T02:07:48.679Z,68.38
2022-11-29T02:10:16.502Z,65.75
2022-11-29T02:12:51.083Z,63.53
2022-11-29T02:15:33.242Z,69.15
2022-11-29T02:18:25.955Z,67.25
2022-11-29T02:21:13.585Z,70.72
2022-11-29T02:23:59.020Z,71.05
2022-11-29T02:26:28.828Z,68.00
2022-11-29T02:29:07.835Z,68.97
2022-11-29T02:31:37.315Z,67.25
2022-11-29T02:34:06.983Z,63.88
2022-11-29T02:36:44.395Z,70.90
2022-11-29T02:39:34.558Z,65.75
2022-11-29T02:42:19.996Z,68.18
2022-11-29T02:45:14.458Z,72.75
2022-11-29T02:48:08.004Z,70.15
2022-11-29T02:51:04.083Z,71.38
2022-11-29T02:54:00.281Z,69.50
2022-11-29T02:56:46.521Z,68.93
2022-11-29T03:01:52.933Z,71.05
2022-11-29T03:04:32.213Z,67.10
2022-11-29T03:07:17.614Z,73.55
2022-11-29T03:09:55.403Z,69.88
2022-11-29T03:12:41.502Z,73.05
2022-11-29T03:18:22.523Z,67.97
2022-11-29T03:21:06.719Z,70.00
2022-11-29T03:23:56.216Z,69.38
2022-11-29T03:26:43.528Z,68.88
2022-11-29T03:29:14.988Z,69.35
2022-11-29T03:31:56.630Z,70.93
2022-11-29T03:34:26.388Z,74.47
2022-11-29T03:36:58.901Z,83.03
2022-11-29T03:39:34.174Z,70.53
2022-11-29T03:42:07.905Z,77.32
2022-11-29T03:44:42.037Z,70.22
2022-11-29T03:47:14.521Z,72.70
2022-11-29T03:49:48.250Z,70.43
2022-11-29T03:52:42.234Z,74.03
2022-11-29T03:55:08.888Z,75.03
2022-11-29T03:57:38.289Z,75.28
2022-11-29T04:00:08.609Z,77.20
2022-11-29T04:02:44.440Z,75.50
2022-11-29T04:05:21.261Z,74.55
2022-11-29T04:07:50.976Z,74.10
2022-11-29T04:10:42.565Z,76.05
2022-11-29T04:13:46.636Z,72.43
2022-11-29T04:16:34.309Z,76.22
2022-11-29T04:19:31.931Z,68.07
2022-11-29T04:22:29.000Z,71.63
2022-11-29T04:25:22.285Z,74.53
2022-11-29T04:27:58.023Z,74.43
2022-11-29T04:33:01.472Z,71.60
2022-11-29T04:35:41.650Z,73.88
2022-11-29T04:38:08.266Z,72.32
2022-11-29T04:41:12.695Z,72.97
2022-11-29T04:44:17.988Z,74.32
2022-11-29T04:47:27.873Z,80.97
2022-11-29T04:50:22.919Z,72.93
2022-11-29T04:52:52.521Z,70.47
2022-11-29T04:56:00.851Z,68.80
2022-11-29T04:58:40.211Z,71.97
2022-11-29T05:01:41.153Z,75.88
2022-11-29T05:04:20.342Z,74.88
2022-11-29T05:06:50.041Z,76.43
2022-11-29T05:09:38.548Z,76.20
2022-11-29T05:12:19.375Z,72.95
2022-11-29T05:15:09.607Z,74.72
2022-11-29T05:17:50.462Z,73.53
2022-11-29T05:20:42.074Z,77.28
2022-11-29T05:23:26.854Z,72.72
2022-11-29T05:26:19.542Z,69.82
2022-11-29T05:29:01.312Z,73.78
2022-11-29T05:31:46.046Z,77.47
2022-11-29T05:34:12.672Z,70.57
2022-11-29T05:36:51.392Z,73.07
2022-11-29T05:39:39.692Z,77.88
2022-11-29T05:42:27.866Z,77.38
2022-11-29T05:45:05.376Z,76.38
2022-11-29T05:47:40.356Z,77.47
2022-11-29T05:50:23.175Z,77.30
2022-11-29T05:52:59.979Z,76.03
2022-11-29T05:55:51.274Z,79.35
2022-11-29T05:58:45.593Z,74.85
2022-11-29T06:01:36.377Z,75.45
2022-11-29T06:04:19.810Z,70.00
2022-11-29T06:07:16.090Z,76.57
2022-11-29T06:10:05.055Z,77.00
2022-11-29T06:12:34.544Z,74.60
2022-11-29T06:15:33.808Z,76.57
2022-11-29T06:18:03.610Z,70.50
2022-11-29T06:21:08.766Z,75.57
2022-11-29T06:23:52.800Z,73.97
2022-11-29T06:26:43.062Z,78.32
2022-11-29T06:29:24.652Z,72.00
2022-11-29T06:32:19.116Z,74.68
2022-11-29T06:35:11.171Z,67.32
2022-11-29T06:37:41.709Z,76.72
2022-11-29T06:40:14.298Z,75.70
2022-11-29T06:42:41.326Z,73.82
2022-11-29T06:45:11.885Z,75.68
2022-11-29T06:47:52.571Z,76.45
2022-11-29T06:50:31.731Z,72.32
2022-11-29T06:53:24.599Z,68.22
2022-11-29T06:56:29.203Z,75.30
2022-11-29T06:59:23.801Z,73.35
2022-11-29T07:02:10.727Z,70.18
2022-11-29T07:05:04.867Z,69.50
2022-11-29T07:07:34.040Z,74.78
2022-11-29T07:10:02.769Z,71.93
2022-11-29T07:12:29.855Z,72.78
2022-11-29T07:14:57.246Z,68.70
2022-11-29T07:17:42.788Z,75.80
2022-11-29T07:20:44.290Z,70.35
2022-11-29T07:23:24.304Z,74.47
2022-11-29T07:25:54.100Z,72.18
2022-11-29T07:28:37.645Z,70.93
2022-11-29T07:31:19.195Z,73.90
2022-11-29T07:34:03.996Z,76.07
2022-11-29T07:36:54.248Z,74.05
2022-11-29T07:39:39.014Z,68.93
2022-11-29T07:42:31.597Z,69.38
2022-11-29T07:45:29.130Z,67.63
2022-11-29T07:47:55.939Z,67.55
2022-11-29T07:50:22.735Z,67.15
2022-11-29T07:52:49.704Z,68.47
2022-11-29T07:55:24.959Z,66.35
2022-11-29T07:57:52.567Z,68.07
2022-11-29T08:00:20.630Z,71.70
2022-11-29T08:02:50.591Z,69.75
2022-11-29T08:05:17.844Z,69.28
2022-11-29T08:07:44.821Z,66.03
2022-11-29T08:10:14.879Z,72.30
2022-11-29T08:12:47.794Z,70.57
2022-11-29T08:15:15.127Z,70.70
2022-11-29T08:17:42.310Z,64.45
2022-11-29T08:20:10.294Z,64.25
2022-11-29T08:22:38.880Z,68.05
2022-11-29T08:25:07.410Z,61.90
2022-11-29T08:27:35.179Z,68.18
2022-11-29T08:30:01.972Z,64.47
2022-11-29T08:32:29.062Z,67.88
2022-11-29T08:34:55.939Z,63.53
2022-11-29T08:37:22.708Z,59.55
2022-11-29T08:39:49.426Z,64.45
2022-11-29T08:42:16.193Z,66.30
2022-11-29T08:44:43.214Z,65.50
2022-11-29T08:47:10.794Z,64.00
2022-11-29T08:49:37.526Z,67.28
2022-11-29T08:52:04.427Z,70.25
2022-11-29T08:54:34.397Z,67.93
2022-11-29T08:59:47.854Z,62.70
2022-11-29T09:02:14.562Z,64.10
2022-11-29T09:04:41.239Z,61.45
2022-11-29T09:07:07.878Z,67.72
2022-11-29T09:09:34.526Z,64.82
2022-11-29T09:12:01.283Z,60.72
2022-11-29T09:14:28.188Z,69.80
2022-11-29T09:16:55.048Z,63.20
2022-11-29T09:19:21.723Z,62.58
2022-11-29T09:21:48.358Z,61.10
2022-11-29T09:24:15.120Z,65.78
2022-11-29T09:26:41.826Z,67.35
2022-11-29T09:29:09.034Z,59.63
2022-11-29T09:31:35.925Z,62.13
2022-11-29T09:34:02.696Z,66.78
2022-11-29T09:36:30.526Z,64.47
2022-11-29T09:38:58.238Z,70.78
2022-11-29T09:41:55.980Z,64.35
2022-11-29T09:44:28.626Z,64.68
2022-11-29T09:47:22.418Z,60.50
2022-11-29T09:50:01.159Z,62.13
2022-11-29T09:52:45.868Z,63.90
2022-11-29T09:55:38.904Z,57.72
2022-11-29T09:58:13.418Z,64.57
2022-11-29T10:00:52.269Z,64.35
2022-11-29T10:03:22.516Z,64.68
2022-11-29T10:06:13.399Z,63.50
2022-11-29T10:08:51.791Z,67.20
2022-11-29T10:11:28.562Z,61.80
2022-11-29T10:14:02.730Z,64.85
2022-11-29T10:16:41.533Z,65.00
2022-11-29T10:19:38.501Z,60.60
2022-11-29T10:22:20.898Z,60.97
2022-11-29T10:24:51.697Z,67.88
2022-11-29T10:27:23.116Z,60.95
2022-11-29T10:29:53.811Z,64.55
2022-11-29T10:32:22.007Z,70.15
2022-11-29T10:34:50.157Z,63.10
2022-11-29T10:37:20.189Z,71.93
2022-11-29T10:40:00.709Z,64.68
2022-11-29T10:42:28.775Z,62.95
2022-11-29T10:44:55.905Z,65.07
2022-11-29T10:47:22.680Z,70.72
2022-11-29T10:49:49.378Z,67.93
2022-11-29T10:52:21.311Z,63.97
2022-11-29T10:54:49.812Z,67.68
2022-11-29T10:57:21.888Z,65.40
2022-11-29T11:00:10.126Z,71.32
2022-11-29T11:02:39.530Z,67.22
2022-11-29T11:05:14.083Z,74.25
2022-11-29T11:07:40.961Z,66.68
2022-11-29T11:10:28.549Z,67.57
2022-11-29T11:13:06.931Z,72.25
2022-11-29T11:15:34.213Z,64.45
2022-11-29T11:18:06.168Z,70.43
2022-11-29T11:20:37.834Z,67.45
2022-11-29T11:23:24.551Z,68.00
2022-11-29T11:26:01.759Z,65.90
2022-11-29T11:28:33.364Z,68.43
2022-11-29T11:31:06.266Z,68.45
2022-11-29T11:33:46.054Z,71.40
2022-11-29T11:36:14.536Z,70.68
2022-11-29T11:39:02.352Z,69.10
2022-11-29T11:41:38.354Z,67.05
2022-11-29T11:44:14.879Z,65.38
2022-11-29T11:46:52.312Z,68.13
2022-11-29T11:49:47.132Z,64.22
2022-11-29T11:52:49.870Z,70.07
2022-11-29T11:55:32.373Z,66.68
2022-11-29T11:58:09.713Z,68.25
2022-11-29T12:01:02.417Z,68.32
2022-11-29T12:03:48.247Z,68.28
2022-11-29T12:06:36.941Z,69.50
2022-11-29T12:09:09.553Z,68.70
2022-11-29T12:11:55.225Z,69.28
2022-11-29T12:14:47.156Z,74.28
2022-11-29T12:17:19.961Z,72.80
2022-11-29T12:19:58.177Z,70.95
2022-11-29T12:22:30.664Z,75.72
2022-11-29T12:25:04.823Z,68.47
2022-11-29T12:27:31.632Z,71.32
2022-11-29T12:29:58.361Z,73.18
2022-11-29T12:32:32.303Z,67.18
2022-11-29T12:35:02.022Z,73.18
2022-11-29T12:38:17.926Z,69.32
2022-11-29T12:41:27.515Z,71.32
2022-11-29T12:43:54.150Z,78.25
2022-11-29T12:46:29.008Z,78.47
2022-11-29T12:49:19.942Z,69.83
2022-11-29T12:52:03.927Z,77.50
2022-11-29T12:54:51.667Z,80.80
2022-11-29T12:57:42.520Z,76.97
2022-11-29T13:00:15.560Z,72.90
2022-11-29T13:03:02.525Z,77.50
2022-11-29T13:05:50.308Z,74.63
2022-11-29T13:08:50.552Z,71.22
2022-11-29T13:11:43.036Z,74.28
2022-11-29T13:14:42.088Z,73.22
2022-11-29T13:17:23.924Z,73.90
2022-11-29T13:19:55.589Z,70.85
2022-11-29T13:23:15.722Z,74.78
2022-11-29T13:25:46.695Z,74.53
2022-11-29T13:28:22.009Z,68.97
2022-11-29T13:30:49.615Z,78.93
2022-11-29T13:33:31.469Z,74.65
2022-11-29T13:36:14.426Z,76.03
2022-11-29T13:38:41.072Z,74.70
2022-11-29T13:41:29.093Z,78.40
2022-11-29T13:44:06.203Z,78.43
2022-11-29T13:46:36.079Z,79.82
2022-11-29T13:49:03.184Z,80.78
2022-11-29T13:51:35.856Z,79.68
2022-11-29T13:54:06.379Z,79.90
2022-11-29T13:56:41.680Z,73.50
2022-11-29T13:59:27.258Z,81.90
2022-11-29T14:01:54.624Z,78.18
2022-11-29T14:04:38.645Z,77.25
2022-11-29T14:07:17.633Z,79.70
2022-11-29T14:09:47.688Z,75.45
2022-11-29T14:12:39.602Z,75.55
2022-11-29T14:15:16.855Z,77.13
2022-11-29T14:17:58.813Z,79.30
2022-11-29T14:20:25.399Z,81.30
2022-11-29T14:23:33.106Z,82.72
2022-11-29T14:25:59.746Z,73.95
2022-11-29T14:28:38.213Z,74.47
2022-11-29T14:31:07.173Z,72.88
2022-11-29T14:34:06.252Z,76.03
2022-11-29T14:37:00.086Z,79.30
2022-11-29T14:39:49.221Z,78.43
2022-11-29T14:42:22.456Z,79.38
2022-11-29T14:44:55.387Z,75.45
2022-11-29T14:47:26.260Z,74.85
2022-11-29T14:49:55.356Z,77.18
2022-11-29T14:52:29.019Z,77.80
2022-11-29T14:54:58.956Z,76.03
2022-11-29T14:57:51.931Z,70.90
2022-11-29T15:00:22.439Z,78.03
2022-11-29T15:03:09.417Z,79.60
2022-11-29T15:05:50.002Z,77.47
2022-11-29T15:08:28.383Z,73.45
2022-11-29T15:11:10.166Z,73.75
2022-11-29T15:13:45.004Z,76.65
2022-11-29T15:16:24.499Z,77.63
2022-11-29T15:19:19.020Z,75.25
2022-11-29T15:22:19.246Z,76.22
2022-11-29T15:25:00.758Z,70.32
2022-11-29T15:27:28.333Z,70.50
2022-11-29T15:29:55.079Z,75.88
2022-11-29T15:32:31.558Z,75.70
2022-11-29T15:34:59.041Z,76.45
2022-11-29T15:37:31.849Z,74.97
2022-11-29T15:40:18.836Z,71.07
2022-11-29T15:43:12.423Z,76.05
2022-11-29T15:45:40.023Z,78.15
2022-11-29T15:48:17.133Z,78.72
2022-11-29T15:50:54.758Z,73.82
2022-11-29T15:53:36.939Z,75.30
2022-11-29T15:56:11.008Z,73.63
2022-11-29T15:58:38.229Z,75.40
2022-11-29T16:01:06.049Z,77.80
2022-11-29T16:03:35.502Z,73.10
2022-11-29T16:06:05.653Z,80.57
2022-11-29T16:08:37.217Z,74.07
2022-11-29T16:11:05.703Z,78.97
2022-11-29T16:13:40.314Z,76.53
2022-11-29T16:16:09.954Z,71.97
2022-11-29T16:18:37.998Z,73.45
2022-11-29T16:21:06.421Z,75.18
2022-11-29T16:23:35.465Z,76.82
2022-11-29T16:26:17.677Z,74.13
2022-11-29T16:28:46.935Z,77.93
2022-11-29T16:31:22.722Z,78.13
2022-11-29T16:33:51.476Z,80.20
2022-11-29T16:36:25.375Z,85.07
2022-11-29T16:39:07.404Z,85.20
2022-11-29T16:41:35.896Z,78.32
2022-11-29T16:44:04.368Z,77.88
2022-11-29T16:46:35.977Z,79.32
2022-11-29T16:49:33.374Z,76.88
2022-11-29T16:52:00.811Z,85.45
2022-11-29T16:54:32.363Z,78.65
2022-11-29T16:56:59.385Z,77.05
2022-11-29T16:59:28.344Z,81.97
2022-11-29T17:01:56.558Z,77.50
2022-11-29T17:04:24.372Z,88.88
2022-11-29T17:06:56.947Z,84.43
2022-11-29T17:09:26.385Z,81.90
2022-11-29T17:11:54.184Z,85.95
2022-11-29T17:14:21.088Z,83.75
2022-11-29T17:16:47.860Z,85.53
2022-11-29T17:19:15.287Z,82.38
2022-11-29T17:21:42.246Z,82.50
2022-11-29T17:24:12.963Z,84.43
2022-11-29T17:26:40.984Z,88.05
2022-11-29T17:29:10.194Z,87.63
2022-11-29T17:31:36.964Z,85.70
2022-11-29T17:34:04.074Z,91.47
2022-11-29T17:36:30.881Z,81.50
2022-11-29T17:38:59.486Z,81.55
2022-11-29T17:41:27.187Z,81.28
2022-11-29T17:43:55.566Z,81.30
2022-11-29T17:46:28.710Z,77.68
2022-11-29T17:48:58.350Z,104.68
2022-11-29T17:54:12.218Z,82.55
2022-11-29T17:56:38.988Z,86.07
2022-11-29T17:59:05.956Z,83.88
2022-11-29T18:01:34.388Z,84.60
2022-11-29T18:04:02.373Z,82.95
2022-11-29T18:06:37.872Z,88.50
2022-11-29T18:09:06.229Z,85.65
2022-11-29T18:11:44.860Z,83.25
2022-11-29T18:14:15.321Z,85.18
2022-11-29T18:16:42.148Z,82.72
2022-11-29T18:19:12.239Z,83.97
2022-11-29T18:21:39.034Z,84.90
2022-11-29T18:24:06.928Z,83.95
2022-11-29T18:26:35.920Z,86.95
2022-11-29T18:29:03.122Z,84.13
2022-11-29T18:31:32.195Z,85.95
2022-11-29T18:34:01.138Z,84.25
2022-11-29T18:36:33.512Z,82.90
2022-11-29T18:39:02.440Z,85.75
2022-11-29T18:41:30.448Z,86.55
2022-11-29T18:44:08.976Z,88.43
2022-11-29T18:46:37.695Z,86.43
2022-11-29T18:49:07.209Z,85.00
2022-11-29T18:51:35.607Z,86.43
2022-11-29T18:54:02.590Z,92.18
2022-11-29T18:56:31.192Z,84.50
2022-11-29T18:59:03.372Z,85.05
2022-11-29T19:01:32.429Z,88.88
2022-11-29T19:04:01.185Z,93.50
2022-11-29T19:06:38.891Z,88.13
2022-11-29T19:09:11.597Z,87.55
2022-11-29T19:11:39.209Z,91.15
2022-11-29T19:14:07.851Z,86.78
2022-11-29T19:16:34.739Z,88.63
2022-11-29T19:19:02.090Z,86.70
2022-11-29T19:21:31.438Z,84.05
2022-11-29T19:24:01.299Z,92.25
2022-11-29T19:26:30.174Z,90.78
2022-11-29T19:28:59.082Z,91.03
2022-11-29T19:31:26.290Z,91.53
2022-11-29T19:33:54.553Z,82.72
2022-11-29T19:36:31.359Z,88.88
2022-11-29T19:39:00.783Z,93.20
2022-11-29T19:41:33.060Z,89.88
2022-11-29T19:44:05.381Z,90.55
2022-11-29T19:46:40.572Z,86.70
2022-11-29T19:49:08.832Z,88.45
2022-11-29T19:51:36.339Z,94.13
2022-11-29T19:54:05.937Z,91.97
2022-11-29T19:56:33.169Z,88.13
2022-11-29T19:59:00.248Z,89.75
2022-11-29T20:01:36.071Z,90.03
2022-11-29T20:04:06.895Z,89.97
2022-11-29T20:06:33.813Z,87.47
2022-11-29T20:09:00.735Z,85.72
2022-11-29T20:11:27.470Z,88.30
2022-11-29T20:14:00.356Z,88.28
2022-11-29T20:16:28.413Z,93.93
2022-11-29T20:18:55.507Z,85.05
2022-11-29T20:21:31.292Z,85.65
2022-11-29T20:24:03.024Z,94.88
2022-11-29T20:26:31.702Z,90.00
2022-11-29T20:28:59.013Z,87.32
2022-11-29T20:31:25.787Z,87.75
2022-11-29T20:33:53.897Z,93.40
2022-11-29T20:36:51.425Z,91.18
2022-11-29T20:39:36.428Z,96.32
2022-11-29T20:42:33.460Z,97.35
2022-11-29T20:45:02.567Z,89.88
2022-11-29T20:48:02.498Z,96.85
2022-11-29T20:50:31.516Z,95.43
2022-11-29T20:53:01.106Z,93.85
2022-11-29T20:55:27.778Z,92.53
2022-11-29T20:57:54.488Z,93.90
2022-11-29T21:00:21.573Z,94.63
2022-11-29T21:02:48.268Z,92.80
2022-11-29T21:05:15.114Z,97.45
2022-11-29T21:07:42.327Z,98.85
2022-11-29T21:10:09.389Z,97.30
2022-11-29T21:12:36.305Z,99.50
2022-11-29T21:15:03.463Z,98.50
2022-11-29T21:17:33.719Z,97.65
2022-11-29T21:20:01.196Z,97.00
2022-11-29T21:22:45.848Z,97.82
2022-11-29T21:25:38.133Z,101.53
2022-11-29T21:28:11.476Z,101.57
2022-11-29T21:30:39.184Z,95.32
2022-11-29T21:33:06.349Z,99.18
2022-11-29T21:35:33.032Z,97.68
2022-11-29T21:38:01.586Z,95.18
2022-11-29T21:40:28.518Z,101.47
2022-11-29T21:42:55.324Z,94.28
2022-11-29T21:45:21.967Z,95.95
2022-11-29T21:47:48.634Z,98.55
2022-11-29T21:50:15.441Z,94.15
2022-11-29T21:52:42.148Z,96.22
2022-11-29T21:55:09.167Z,96.40
2022-11-29T21:57:35.903Z,93.55
2022-11-29T22:00:03.863Z,95.20
2022-11-29T22:02:30.658Z,100.88
2022-11-29T22:04:57.542Z,98.50
2022-11-29T22:07:24.213Z,98.25
2022-11-29T22:09:50.957Z,104.15
2022-11-29T22:12:33.889Z,98.80
2022-11-29T22:15:01.466Z,99.80
2022-11-29T22:17:28.219Z,95.78
2022-11-29T22:19:54.882Z,101.43
2022-11-29T22:22:27.147Z,99.28
2022-11-29T22:25:00.858Z,98.30
2022-11-29T22:27:27.466Z,95.25
2022-11-29T22:29:54.094Z,97.72
2022-11-29T22:32:20.763Z,99.47
2022-11-29T22:34:47.578Z,94.97
2022-11-29T22:37:14.584Z,96.82
2022-11-29T22:39:41.259Z,96.18
2022-11-29T22:42:07.905Z,96.18
2022-11-29T22:44:34.578Z,98.93
2022-11-29T22:47:01.382Z,99.68
2022-11-29T22:49:28.089Z,96.55
2022-11-29T22:51:55.901Z,99.50
2022-11-29T22:54:22.580Z,102.30
2022-11-29T22:56:52.011Z,98.95
2022-11-29T22:59:18.729Z,98.18
2022-11-29T23:01:45.433Z,101.25
2022-11-29T23:04:12.775Z,98.35
2022-11-29T23:06:43.185Z,99.15
2022-11-29T23:09:17.163Z,97.53
2022-11-29T23:11:45.408Z,101.28
2022-11-29T23:14:12.993Z,103.80
2022-11-29T23:16:43.174Z,104.47
2022-11-29T23:19:10.270Z,100.60
2022-11-29T23:21:42.011Z,99.55
2022-11-29T23:24:08.934Z,104.55
2022-11-29T23:26:38.470Z,99.70
2022-11-29T23:29:11.680Z,102.03
2022-11-29T23:31:39.582Z,101.82
2022-11-29T23:34:06.483Z,101.38
2022-11-29T23:36:33.580Z,103.28
2022-11-29T23:39:00.313Z,101.03
2022-11-29T23:41:27.162Z,102.32
2022-11-29T23:43:53.973Z,104.43
2022-11-29T23:46:23.282Z,104.50
2022-11-29T23:48:50.540Z,106.18
2022-11-29T23:51:18.758Z,101.93
2022-11-29T23:53:46.044Z,102.72
2022-11-29T23:56:17.224Z,99.00
2022-11-29T23:58:44.832Z,102.45
